sensor_id;sensor_type;location;lat;lon;timestamp;P1;durP1;ratioP1;P2;durP2;ratioP2
51718;SDS011;37795;53.236;5.704;2023-01-29T00:00:01;13.57;;;12.17;;
51718;SDS011;37795;53.236;5.704;2023-01-29T00:02:34;16.50;;;12.43;;
51718;SDS011;37795;53.236;5.704;2023-01-29T00:05:03;22.20;;;15.02;;
51718;SDS011;37795;53.236;5.704;2023-01-29T00:07:30;15.10;;;13.50;;
51718;SDS011;37795;53.236;5.704;2023-01-29T00:09:56;14.82;;;13.25;;
51718;SDS011;37795;53.236;5.704;2023-01-29T00:12:22;19.23;;;12.77;;
51718;SDS011;37795;53.236;5.704;2023-01-29T00:14:48;16.10;;;12.23;;
51718;SDS011;37795;53.236;5.704;2023-01-29T00:17:13;16.93;;;13.30;;
51718;SDS011;37795;53.236;5.704;2023-01-29T00:19:39;14.35;;;12.88;;
51718;SDS011;37795;53.236;5.704;2023-01-29T00:22:05;14.30;;;12.13;;
51718;SDS011;37795;53.236;5.704;2023-01-29T00:24:30;15.93;;;14.00;;
51718;SDS011;37795;53.236;5.704;2023-01-29T00:26:56;20.87;;;14.93;;
51718;SDS011;37795;53.236;5.704;2023-01-29T00:29:22;16.65;;;13.93;;
51718;SDS011;37795;53.236;5.704;2023-01-29T00:31:47;17.07;;;13.63;;
51718;SDS011;37795;53.236;5.704;2023-01-29T00:34:13;14.77;;;13.20;;
51718;SDS011;37795;53.236;5.704;2023-01-29T00:36:39;17.98;;;14.77;;
51718;SDS011;37795;53.236;5.704;2023-01-29T00:39:04;14.47;;;12.87;;
51718;SDS011;37795;53.236;5.704;2023-01-29T00:41:34;16.10;;;13.50;;
51718;SDS011;37795;53.236;5.704;2023-01-29T00:44:20;19.30;;;15.02;;
51718;SDS011;37795;53.236;5.704;2023-01-29T00:47:04;17.52;;;15.68;;
51718;SDS011;37795;53.236;5.704;2023-01-29T00:49:53;22.55;;;16.83;;
51718;SDS011;37795;53.236;5.704;2023-01-29T00:52:19;18.13;;;15.90;;
51718;SDS011;37795;53.236;5.704;2023-01-29T00:54:59;17.30;;;15.07;;
51718;SDS011;37795;53.236;5.704;2023-01-29T00:57:26;24.20;;;16.45;;
51718;SDS011;37795;53.236;5.704;2023-01-29T00:59:54;18.98;;;17.08;;
51718;SDS011;37795;53.236;5.704;2023-01-29T01:02:20;20.65;;;17.15;;
51718;SDS011;37795;53.236;5.704;2023-01-29T01:05:05;18.38;;;16.33;;
51718;SDS011;37795;53.236;5.704;2023-01-29T01:07:38;20.95;;;15.82;;
51718;SDS011;37795;53.236;5.704;2023-01-29T01:10:05;22.80;;;16.15;;
51718;SDS011;37795;53.236;5.704;2023-01-29T01:12:51;23.15;;;15.95;;
51718;SDS011;37795;53.236;5.704;2023-01-29T01:15:25;18.10;;;15.38;;
51718;SDS011;37795;53.236;5.704;2023-01-29T01:17:54;19.90;;;17.05;;
51718;SDS011;37795;53.236;5.704;2023-01-29T01:20:22;21.83;;;19.58;;
51718;SDS011;37795;53.236;5.704;2023-01-29T01:22:48;24.75;;;19.30;;
51718;SDS011;37795;53.236;5.704;2023-01-29T01:25:14;21.42;;;17.25;;
51718;SDS011;37795;53.236;5.704;2023-01-29T01:27:41;22.27;;;18.63;;
51718;SDS011;37795;53.236;5.704;2023-01-29T01:30:11;20.77;;;17.70;;
51718;SDS011;37795;53.236;5.704;2023-01-29T01:32:39;18.73;;;16.85;;
51718;SDS011;37795;53.236;5.704;2023-01-29T01:35:06;20.50;;;17.02;;
51718;SDS011;37795;53.236;5.704;2023-01-29T01:37:33;24.50;;;17.52;;
51718;SDS011;37795;53.236;5.704;2023-01-29T01:40:02;21.70;;;18.45;;
51718;SDS011;37795;53.236;5.704;2023-01-29T01:42:39;23.02;;;18.70;;
51718;SDS011;37795;53.236;5.704;2023-01-29T01:45:07;20.27;;;17.75;;
51718;SDS011;37795;53.236;5.704;2023-01-29T01:47:44;20.08;;;17.95;;
51718;SDS011;37795;53.236;5.704;2023-01-29T01:50:14;18.88;;;16.88;;
51718;SDS011;37795;53.236;5.704;2023-01-29T01:53:04;21.40;;;17.00;;
51718;SDS011;37795;53.236;5.704;2023-01-29T01:55:32;23.67;;;18.48;;
51718;SDS011;37795;53.236;5.704;2023-01-29T01:58:15;25.67;;;20.77;;
51718;SDS011;37795;53.236;5.704;2023-01-29T02:00:46;29.50;;;20.83;;
51718;SDS011;37795;53.236;5.704;2023-01-29T02:03:12;24.53;;;20.70;;
51718;SDS011;37795;53.236;5.704;2023-01-29T02:05:56;30.20;;;24.65;;
51718;SDS011;37795;53.236;5.704;2023-01-29T02:11:38;28.33;;;24.70;;
51718;SDS011;37795;53.236;5.704;2023-01-29T02:14:04;31.67;;;24.20;;
51718;SDS011;37795;53.236;5.704;2023-01-29T02:16:32;31.80;;;23.35;;
51718;SDS011;37795;53.236;5.704;2023-01-29T02:18:59;29.25;;;23.40;;
51718;SDS011;37795;53.236;5.704;2023-01-29T02:30:35;23.42;;;20.92;;
51718;SDS011;37795;53.236;5.704;2023-01-29T02:33:07;32.05;;;22.35;;
51718;SDS011;37795;53.236;5.704;2023-01-29T02:35:43;22.67;;;19.65;;
51718;SDS011;37795;53.236;5.704;2023-01-29T02:38:20;21.88;;;19.50;;
51718;SDS011;37795;53.236;5.704;2023-01-29T02:40:57;18.92;;;16.92;;
51718;SDS011;37795;53.236;5.704;2023-01-29T02:44:02;22.00;;;18.58;;
51718;SDS011;37795;53.236;5.704;2023-01-29T02:52:14;23.70;;;20.80;;
51718;SDS011;37795;53.236;5.704;2023-01-29T02:54:51;28.08;;;19.05;;
51718;SDS011;37795;53.236;5.704;2023-01-29T02:57:28;23.27;;;19.40;;
51718;SDS011;37795;53.236;5.704;2023-01-29T02:59:59;28.15;;;19.90;;
51718;SDS011;37795;53.236;5.704;2023-01-29T03:02:40;23.95;;;19.02;;
51718;SDS011;37795;53.236;5.704;2023-01-29T03:05:30;28.42;;;19.77;;
51718;SDS011;37795;53.236;5.704;2023-01-29T03:08:19;27.85;;;20.02;;
51718;SDS011;37795;53.236;5.704;2023-01-29T03:10:55;21.85;;;19.52;;
51718;SDS011;37795;53.236;5.704;2023-01-29T03:18:36;23.90;;;17.85;;
51718;SDS011;37795;53.236;5.704;2023-01-29T03:21:11;20.08;;;17.98;;
51718;SDS011;37795;53.236;5.704;2023-01-29T03:24:00;18.80;;;16.80;;
51718;SDS011;37795;53.236;5.704;2023-01-29T03:26:46;19.65;;;15.45;;
51718;SDS011;37795;53.236;5.704;2023-01-29T03:29:30;19.35;;;16.52;;
51718;SDS011;37795;53.236;5.704;2023-01-29T03:32:16;19.30;;;17.08;;
51718;SDS011;37795;53.236;5.704;2023-01-29T03:34:47;19.27;;;15.57;;
51718;SDS011;37795;53.236;5.704;2023-01-29T03:37:32;26.17;;;18.63;;
51718;SDS011;37795;53.236;5.704;2023-01-29T03:40:00;24.08;;;18.05;;
51718;SDS011;37795;53.236;5.704;2023-01-29T03:42:37;20.02;;;17.40;;
51718;SDS011;37795;53.236;5.704;2023-01-29T03:47:46;20.80;;;17.02;;
51718;SDS011;37795;53.236;5.704;2023-01-29T03:50:20;23.33;;;16.58;;
51718;SDS011;37795;53.236;5.704;2023-01-29T03:53:50;22.45;;;16.90;;
51718;SDS011;37795;53.236;5.704;2023-01-29T03:56:01;23.08;;;17.33;;
51718;SDS011;37795;53.236;5.704;2023-01-29T04:01:20;22.50;;;17.58;;
51718;SDS011;37795;53.236;5.704;2023-01-29T04:06:22;20.25;;;16.75;;
51718;SDS011;37795;53.236;5.704;2023-01-29T04:08:54;20.83;;;15.43;;
51718;SDS011;37795;53.236;5.704;2023-01-29T04:11:21;17.95;;;16.10;;
51718;SDS011;37795;53.236;5.704;2023-01-29T04:13:47;16.80;;;14.95;;
51718;SDS011;37795;53.236;5.704;2023-01-29T04:16:18;21.70;;;16.95;;
51718;SDS011;37795;53.236;5.704;2023-01-29T04:21:18;20.95;;;17.90;;
51718;SDS011;37795;53.236;5.704;2023-01-29T04:23:44;19.73;;;17.63;;
51718;SDS011;37795;53.236;5.704;2023-01-29T04:32:23;18.63;;;16.60;;
51718;SDS011;37795;53.236;5.704;2023-01-29T04:43:34;19.33;;;16.42;;
51718;SDS011;37795;53.236;5.704;2023-01-29T04:57:25;21.08;;;17.83;;
51718;SDS011;37795;53.236;5.704;2023-01-29T05:00:06;19.52;;;17.42;;
51718;SDS011;37795;53.236;5.704;2023-01-29T05:02:38;17.50;;;15.68;;
51718;SDS011;37795;53.236;5.704;2023-01-29T05:05:06;17.40;;;15.60;;
51718;SDS011;37795;53.236;5.704;2023-01-29T05:07:34;20.30;;;16.60;;
51718;SDS011;37795;53.236;5.704;2023-01-29T05:10:05;18.42;;;16.13;;
51718;SDS011;37795;53.236;5.704;2023-01-29T05:12:33;19.65;;;16.20;;
51718;SDS011;37795;53.236;5.704;2023-01-29T05:15:01;18.73;;;17.02;;
51718;SDS011;37795;53.236;5.704;2023-01-29T05:17:31;20.02;;;17.40;;
51718;SDS011;37795;53.236;5.704;2023-01-29T05:19:57;27.20;;;18.02;;
51718;SDS011;37795;53.236;5.704;2023-01-29T05:22:23;21.40;;;19.20;;
51718;SDS011;37795;53.236;5.704;2023-01-29T05:24:50;21.63;;;18.15;;
51718;SDS011;37795;53.236;5.704;2023-01-29T05:27:28;17.80;;;15.87;;
51718;SDS011;37795;53.236;5.704;2023-01-29T05:30:17;20.80;;;18.48;;
51718;SDS011;37795;53.236;5.704;2023-01-29T05:32:43;21.67;;;18.50;;
51718;SDS011;37795;53.236;5.704;2023-01-29T05:35:08;21.10;;;16.52;;
51718;SDS011;37795;53.236;5.704;2023-01-29T05:37:34;28.47;;;20.73;;
51718;SDS011;37795;53.236;5.704;2023-01-29T05:40:00;21.07;;;18.13;;
51718;SDS011;37795;53.236;5.704;2023-01-29T05:42:25;21.67;;;16.97;;
51718;SDS011;37795;53.236;5.704;2023-01-29T05:44:51;22.27;;;19.00;;
51718;SDS011;37795;53.236;5.704;2023-01-29T05:47:20;19.27;;;15.87;;
51718;SDS011;37795;53.236;5.704;2023-01-29T05:49:46;22.17;;;18.80;;
51718;SDS011;37795;53.236;5.704;2023-01-29T05:52:11;19.13;;;17.07;;
51718;SDS011;37795;53.236;5.704;2023-01-29T05:54:37;22.40;;;19.90;;
51718;SDS011;37795;53.236;5.704;2023-01-29T05:57:03;28.27;;;21.52;;
51718;SDS011;37795;53.236;5.704;2023-01-29T05:59:28;29.57;;;20.43;;
51718;SDS011;37795;53.236;5.704;2023-01-29T06:01:55;26.17;;;22.13;;
51718;SDS011;37795;53.236;5.704;2023-01-29T06:04:22;38.90;;;22.67;;
51718;SDS011;37795;53.236;5.704;2023-01-29T06:06:47;30.20;;;25.90;;
51718;SDS011;37795;53.236;5.704;2023-01-29T06:09:13;27.43;;;24.43;;
51718;SDS011;37795;53.236;5.704;2023-01-29T06:11:39;29.67;;;24.10;;
51718;SDS011;37795;53.236;5.704;2023-01-29T06:14:04;30.87;;;23.73;;
51718;SDS011;37795;53.236;5.704;2023-01-29T06:16:30;31.73;;;24.13;;
51718;SDS011;37795;53.236;5.704;2023-01-29T06:18:56;30.27;;;23.87;;
51718;SDS011;37795;53.236;5.704;2023-01-29T06:21:22;30.67;;;23.57;;
51718;SDS011;37795;53.236;5.704;2023-01-29T06:23:47;28.33;;;23.63;;
51718;SDS011;37795;53.236;5.704;2023-01-29T06:26:14;35.33;;;23.40;;
51718;SDS011;37795;53.236;5.704;2023-01-29T06:31:06;26.80;;;23.20;;
51718;SDS011;37795;53.236;5.704;2023-01-29T06:33:32;27.40;;;24.45;;
51718;SDS011;37795;53.236;5.704;2023-01-29T06:35:59;28.48;;;22.77;;
51718;SDS011;37795;53.236;5.704;2023-01-29T06:38:26;30.38;;;23.88;;
51718;SDS011;37795;53.236;5.704;2023-01-29T06:40:52;26.42;;;22.60;;
51718;SDS011;37795;53.236;5.704;2023-01-29T06:43:19;32.70;;;26.63;;
51718;SDS011;37795;53.236;5.704;2023-01-29T06:45:46;26.83;;;23.10;;
51718;SDS011;37795;53.236;5.704;2023-01-29T06:48:19;32.08;;;26.10;;
51718;SDS011;37795;53.236;5.704;2023-01-29T06:58:08;36.30;;;28.57;;
51718;SDS011;37795;53.236;5.704;2023-01-29T07:00:36;34.65;;;27.38;;
51718;SDS011;37795;53.236;5.704;2023-01-29T07:03:03;43.25;;;27.95;;
51718;SDS011;37795;53.236;5.704;2023-01-29T07:05:29;32.05;;;26.75;;
51718;SDS011;37795;53.236;5.704;2023-01-29T07:07:55;31.70;;;25.95;;
51718;SDS011;37795;53.236;5.704;2023-01-29T07:10:21;33.73;;;27.37;;
51718;SDS011;37795;53.236;5.704;2023-01-29T07:12:47;28.08;;;24.83;;
51718;SDS011;37795;53.236;5.704;2023-01-29T07:15:13;33.45;;;29.10;;
51718;SDS011;37795;53.236;5.704;2023-01-29T07:17:43;35.22;;;31.00;;
51718;SDS011;37795;53.236;5.704;2023-01-29T07:20:09;34.93;;;28.50;;
51718;SDS011;37795;53.236;5.704;2023-01-29T07:22:35;39.60;;;29.98;;
51718;SDS011;37795;53.236;5.704;2023-01-29T07:25:01;39.53;;;30.17;;
51718;SDS011;37795;53.236;5.704;2023-01-29T07:27:26;38.90;;;29.35;;
51718;SDS011;37795;53.236;5.704;2023-01-29T07:29:52;40.93;;;33.90;;
51718;SDS011;37795;53.236;5.704;2023-01-29T07:32:18;34.43;;;30.07;;
51718;SDS011;37795;53.236;5.704;2023-01-29T07:34:43;48.20;;;30.67;;
51718;SDS011;37795;53.236;5.704;2023-01-29T07:37:10;39.33;;;31.60;;
51718;SDS011;37795;53.236;5.704;2023-01-29T07:39:35;42.08;;;35.22;;
51718;SDS011;37795;53.236;5.704;2023-01-29T07:42:01;40.57;;;31.50;;
51718;SDS011;37795;53.236;5.704;2023-01-29T07:44:27;41.93;;;33.10;;
51718;SDS011;37795;53.236;5.704;2023-01-29T07:46:52;43.38;;;33.60;;
51718;SDS011;37795;53.236;5.704;2023-01-29T07:49:18;47.92;;;35.95;;
51718;SDS011;37795;53.236;5.704;2023-01-29T07:51:44;44.73;;;37.23;;
51718;SDS011;37795;53.236;5.704;2023-01-29T07:54:09;41.97;;;35.97;;
51718;SDS011;37795;53.236;5.704;2023-01-29T07:56:35;40.07;;;33.67;;
51718;SDS011;37795;53.236;5.704;2023-01-29T07:59:01;40.83;;;31.20;;
51718;SDS011;37795;53.236;5.704;2023-01-29T08:01:27;41.03;;;31.63;;
51718;SDS011;37795;53.236;5.704;2023-01-29T08:03:52;41.47;;;34.17;;
51718;SDS011;37795;53.236;5.704;2023-01-29T08:06:18;42.70;;;32.80;;
51718;SDS011;37795;53.236;5.704;2023-01-29T08:08:44;41.00;;;34.80;;
51718;SDS011;37795;53.236;5.704;2023-01-29T08:11:10;38.30;;;33.93;;
51718;SDS011;37795;53.236;5.704;2023-01-29T08:13:35;46.37;;;33.53;;
51718;SDS011;37795;53.236;5.704;2023-01-29T08:16:01;50.00;;;36.37;;
51718;SDS011;37795;53.236;5.704;2023-01-29T08:18:28;47.90;;;33.90;;
51718;SDS011;37795;53.236;5.704;2023-01-29T08:21:01;47.35;;;32.60;;
51718;SDS011;37795;53.236;5.704;2023-01-29T08:23:27;40.78;;;34.55;;
51718;SDS011;37795;53.236;5.704;2023-01-29T08:25:54;38.42;;;31.88;;
51718;SDS011;37795;53.236;5.704;2023-01-29T08:28:19;44.10;;;35.80;;
51718;SDS011;37795;53.236;5.704;2023-01-29T08:30:45;42.43;;;34.37;;
51718;SDS011;37795;53.236;5.704;2023-01-29T08:33:11;43.80;;;37.13;;
51718;SDS011;37795;53.236;5.704;2023-01-29T08:35:37;44.77;;;35.40;;
51718;SDS011;37795;53.236;5.704;2023-01-29T08:38:03;43.00;;;35.07;;
51718;SDS011;37795;53.236;5.704;2023-01-29T08:40:30;46.75;;;36.17;;
51718;SDS011;37795;53.236;5.704;2023-01-29T08:42:59;43.55;;;34.83;;
51718;SDS011;37795;53.236;5.704;2023-01-29T08:45:25;44.45;;;35.17;;
51718;SDS011;37795;53.236;5.704;2023-01-29T08:47:51;42.60;;;36.93;;
51718;SDS011;37795;53.236;5.704;2023-01-29T08:50:17;51.43;;;35.40;;
51718;SDS011;37795;53.236;5.704;2023-01-29T08:52:43;41.40;;;33.43;;
51718;SDS011;37795;53.236;5.704;2023-01-29T08:55:09;45.70;;;34.25;;
51718;SDS011;37795;53.236;5.704;2023-01-29T08:57:36;59.30;;;38.20;;
51718;SDS011;37795;53.236;5.704;2023-01-29T09:00:02;45.58;;;36.78;;
51718;SDS011;37795;53.236;5.704;2023-01-29T09:02:29;39.78;;;31.30;;
51718;SDS011;37795;53.236;5.704;2023-01-29T09:04:55;43.57;;;33.50;;
51718;SDS011;37795;53.236;5.704;2023-01-29T09:07:21;38.03;;;31.00;;
51718;SDS011;37795;53.236;5.704;2023-01-29T09:09:46;45.00;;;30.97;;
51718;SDS011;37795;53.236;5.704;2023-01-29T09:12:12;37.07;;;27.57;;
51718;SDS011;37795;53.236;5.704;2023-01-29T09:14:38;47.97;;;31.83;;
51718;SDS011;37795;53.236;5.704;2023-01-29T09:17:03;40.60;;;31.35;;
51718;SDS011;37795;53.236;5.704;2023-01-29T09:19:29;37.57;;;30.93;;
51718;SDS011;37795;53.236;5.704;2023-01-29T09:21:55;37.73;;;31.53;;
51718;SDS011;37795;53.236;5.704;2023-01-29T09:24:20;42.87;;;32.43;;
51718;SDS011;37795;53.236;5.704;2023-01-29T09:26:46;42.08;;;32.10;;
51718;SDS011;37795;53.236;5.704;2023-01-29T09:29:12;47.57;;;33.20;;
51718;SDS011;37795;53.236;5.704;2023-01-29T09:31:38;52.80;;;36.10;;
51718;SDS011;37795;53.236;5.704;2023-01-29T09:34:03;43.83;;;35.67;;
51718;SDS011;37795;53.236;5.704;2023-01-29T09:36:29;39.47;;;32.83;;
51718;SDS011;37795;53.236;5.704;2023-01-29T09:38:55;44.70;;;33.33;;
51718;SDS011;37795;53.236;5.704;2023-01-29T09:44:02;42.17;;;31.83;;
51718;SDS011;37795;53.236;5.704;2023-01-29T09:46:56;44.92;;;33.05;;
51718;SDS011;37795;53.236;5.704;2023-01-29T09:49:32;42.30;;;35.33;;
51718;SDS011;37795;53.236;5.704;2023-01-29T09:52:09;38.80;;;31.10;;
51718;SDS011;37795;53.236;5.704;2023-01-29T09:57:24;46.13;;;33.05;;
51718;SDS011;37795;53.236;5.704;2023-01-29T10:00:02;40.90;;;32.72;;
51718;SDS011;37795;53.236;5.704;2023-01-29T10:02:36;40.42;;;32.72;;
51718;SDS011;37795;53.236;5.704;2023-01-29T10:08:23;39.08;;;29.05;;
51718;SDS011;37795;53.236;5.704;2023-01-29T10:11:20;41.20;;;31.77;;
51718;SDS011;37795;53.236;5.704;2023-01-29T10:24:43;30.42;;;25.02;;
51718;SDS011;37795;53.236;5.704;2023-01-29T10:27:18;32.22;;;24.88;;
51718;SDS011;37795;53.236;5.704;2023-01-29T10:29:44;34.83;;;26.17;;
51718;SDS011;37795;53.236;5.704;2023-01-29T10:32:14;32.28;;;24.10;;
51718;SDS011;37795;53.236;5.704;2023-01-29T10:34:47;34.42;;;24.83;;
51718;SDS011;37795;53.236;5.704;2023-01-29T10:37:40;27.50;;;22.63;;
51718;SDS011;37795;53.236;5.704;2023-01-29T10:40:28;26.85;;;23.23;;
51718;SDS011;37795;53.236;5.704;2023-01-29T10:43:05;29.27;;;23.75;;
51718;SDS011;37795;53.236;5.704;2023-01-29T10:45:48;30.60;;;24.10;;
51718;SDS011;37795;53.236;5.704;2023-01-29T10:48:29;26.20;;;20.63;;
51718;SDS011;37795;53.236;5.704;2023-01-29T10:58:49;27.90;;;23.98;;
51718;SDS011;37795;53.236;5.704;2023-01-29T11:01:00;28.58;;;21.98;;
51718;SDS011;37795;53.236;5.704;2023-01-29T11:03:29;26.17;;;19.27;;
51718;SDS011;37795;53.236;5.704;2023-01-29T11:05:58;32.63;;;21.70;;
51718;SDS011;37795;53.236;5.704;2023-01-29T11:11:35;22.33;;;19.87;;
51718;SDS011;37795;53.236;5.704;2023-01-29T11:14:28;25.65;;;20.20;;
51718;SDS011;37795;53.236;5.704;2023-01-29T11:16:59;29.00;;;20.40;;
51718;SDS011;37795;53.236;5.704;2023-01-29T11:19:37;26.40;;;21.37;;
51718;SDS011;37795;53.236;5.704;2023-01-29T11:22:18;29.08;;;18.50;;
51718;SDS011;37795;53.236;5.704;2023-01-29T11:24:46;31.15;;;20.63;;
51718;SDS011;37795;53.236;5.704;2023-01-29T11:27:32;25.88;;;21.08;;
51718;SDS011;37795;53.236;5.704;2023-01-29T11:30:03;26.60;;;18.15;;
51718;SDS011;37795;53.236;5.704;2023-01-29T11:32:31;27.17;;;15.55;;
51718;SDS011;37795;53.236;5.704;2023-01-29T11:35:04;18.98;;;14.20;;
51718;SDS011;37795;53.236;5.704;2023-01-29T11:37:40;20.83;;;15.13;;
51718;SDS011;37795;53.236;5.704;2023-01-29T11:42:42;22.55;;;14.45;;
51718;SDS011;37795;53.236;5.704;2023-01-29T11:45:30;17.63;;;12.63;;
51718;SDS011;37795;53.236;5.704;2023-01-29T11:47:57;15.75;;;12.85;;
51718;SDS011;37795;53.236;5.704;2023-01-29T11:50:25;26.05;;;14.60;;
51718;SDS011;37795;53.236;5.704;2023-01-29T11:52:57;23.33;;;13.70;;
51718;SDS011;37795;53.236;5.704;2023-01-29T11:55:24;17.08;;;12.50;;
51718;SDS011;37795;53.236;5.704;2023-01-29T12:00:48;20.42;;;12.98;;
51718;SDS011;37795;53.236;5.704;2023-01-29T12:06:20;21.65;;;13.55;;
51718;SDS011;37795;53.236;5.704;2023-01-29T12:09:01;18.70;;;12.55;;
51718;SDS011;37795;53.236;5.704;2023-01-29T12:11:34;14.40;;;11.70;;
51718;SDS011;37795;53.236;5.704;2023-01-29T12:14:01;16.70;;;11.90;;
51718;SDS011;37795;53.236;5.704;2023-01-29T12:16:33;15.77;;;10.98;;
51718;SDS011;37795;53.236;5.704;2023-01-29T12:19:15;14.80;;;11.43;;
51718;SDS011;37795;53.236;5.704;2023-01-29T12:22:09;22.83;;;11.75;;
51718;SDS011;37795;53.236;5.704;2023-01-29T12:24:45;17.02;;;11.55;;
51718;SDS011;37795;53.236;5.704;2023-01-29T12:27:42;17.52;;;11.13;;
51718;SDS011;37795;53.236;5.704;2023-01-29T12:30:21;17.33;;;11.82;;
51718;SDS011;37795;53.236;5.704;2023-01-29T12:38:02;16.95;;;11.73;;
51718;SDS011;37795;53.236;5.704;2023-01-29T12:40:31;15.20;;;8.88;;
51718;SDS011;37795;53.236;5.704;2023-01-29T12:43:04;13.90;;;8.27;;
51718;SDS011;37795;53.236;5.704;2023-01-29T12:45:38;17.00;;;8.80;;
51718;SDS011;37795;53.236;5.704;2023-01-29T12:48:07;16.27;;;9.73;;
51718;SDS011;37795;53.236;5.704;2023-01-29T12:50:44;19.38;;;11.00;;
51718;SDS011;37795;53.236;5.704;2023-01-29T12:56:02;12.55;;;11.13;;
51718;SDS011;37795;53.236;5.704;2023-01-29T12:58:44;15.43;;;8.93;;
51718;SDS011;37795;53.236;5.704;2023-01-29T13:01:14;16.40;;;9.23;;
51718;SDS011;37795;53.236;5.704;2023-01-29T13:04:24;20.95;;;8.73;;
51718;SDS011;37795;53.236;5.704;2023-01-29T13:06:48;11.43;;;7.53;;
51718;SDS011;37795;53.236;5.704;2023-01-29T13:09:24;12.65;;;8.88;;
51718;SDS011;37795;53.236;5.704;2023-01-29T13:11:57;13.57;;;7.93;;
51718;SDS011;37795;53.236;5.704;2023-01-29T13:20:07;14.50;;;6.55;;
51718;SDS011;37795;53.236;5.704;2023-01-29T13:22:48;9.90;;;6.40;;
51718;SDS011;37795;53.236;5.704;2023-01-29T13:25:17;12.73;;;5.97;;
51718;SDS011;37795;53.236;5.704;2023-01-29T13:27:44;12.43;;;6.43;;
51718;SDS011;37795;53.236;5.704;2023-01-29T13:30:25;9.30;;;5.63;;
51718;SDS011;37795;53.236;5.704;2023-01-29T13:32:56;8.80;;;5.32;;
51718;SDS011;37795;53.236;5.704;2023-01-29T13:35:41;23.23;;;10.15;;
51718;SDS011;37795;53.236;5.704;2023-01-29T13:38:21;8.93;;;6.25;;
51718;SDS011;37795;53.236;5.704;2023-01-29T13:40:56;9.27;;;5.15;;
51718;SDS011;37795;53.236;5.704;2023-01-29T13:43:25;9.70;;;5.60;;
51718;SDS011;37795;53.236;5.704;2023-01-29T13:45:54;9.82;;;6.80;;
51718;SDS011;37795;53.236;5.704;2023-01-29T13:48:27;19.53;;;7.27;;
51718;SDS011;37795;53.236;5.704;2023-01-29T13:50:59;18.60;;;8.38;;
51718;SDS011;37795;53.236;5.704;2023-01-29T13:53:27;12.65;;;8.25;;
51718;SDS011;37795;53.236;5.704;2023-01-29T13:56:27;17.15;;;8.73;;
51718;SDS011;37795;53.236;5.704;2023-01-29T13:59:00;17.50;;;10.23;;
51718;SDS011;37795;53.236;5.704;2023-01-29T14:04:27;20.75;;;11.50;;
51718;SDS011;37795;53.236;5.704;2023-01-29T14:06:56;17.50;;;9.25;;
51718;SDS011;37795;53.236;5.704;2023-01-29T14:11:58;10.07;;;7.53;;
51718;SDS011;37795;53.236;5.704;2023-01-29T14:15:25;11.67;;;8.93;;
51718;SDS011;37795;53.236;5.704;2023-01-29T14:17:18;17.08;;;8.07;;
51718;SDS011;37795;53.236;5.704;2023-01-29T14:19:46;10.40;;;8.02;;
51718;SDS011;37795;53.236;5.704;2023-01-29T14:22:28;15.07;;;6.80;;
51718;SDS011;37795;53.236;5.704;2023-01-29T14:25:04;13.50;;;7.78;;
51718;SDS011;37795;53.236;5.704;2023-01-29T14:27:30;16.23;;;8.70;;
51718;SDS011;37795;53.236;5.704;2023-01-29T14:30:00;18.13;;;7.97;;
51718;SDS011;37795;53.236;5.704;2023-01-29T14:32:30;20.30;;;8.43;;
51718;SDS011;37795;53.236;5.704;2023-01-29T14:35:17;14.88;;;6.93;;
51718;SDS011;37795;53.236;5.704;2023-01-29T14:37:45;20.75;;;8.23;;
51718;SDS011;37795;53.236;5.704;2023-01-29T14:45:31;14.85;;;9.30;;
51718;SDS011;37795;53.236;5.704;2023-01-29T14:48:00;17.88;;;7.70;;
51718;SDS011;37795;53.236;5.704;2023-01-29T14:58:04;15.88;;;8.32;;
51718;SDS011;37795;53.236;5.704;2023-01-29T15:00:39;16.67;;;8.55;;
51718;SDS011;37795;53.236;5.704;2023-01-29T15:03:12;16.95;;;8.82;;
51718;SDS011;37795;53.236;5.704;2023-01-29T15:06:01;16.75;;;9.60;;
51718;SDS011;37795;53.236;5.704;2023-01-29T15:08:31;14.82;;;8.63;;
51718;SDS011;37795;53.236;5.704;2023-01-29T15:11:11;21.13;;;9.25;;
51718;SDS011;37795;53.236;5.704;2023-01-29T15:19:36;18.65;;;8.60;;
51718;SDS011;37795;53.236;5.704;2023-01-29T15:22:10;10.88;;;7.95;;
51718;SDS011;37795;53.236;5.704;2023-01-29T15:24:44;14.18;;;8.07;;
51718;SDS011;37795;53.236;5.704;2023-01-29T15:27:15;16.48;;;9.05;;
51718;SDS011;37795;53.236;5.704;2023-01-29T15:29:45;16.17;;;8.23;;
51718;SDS011;37795;53.236;5.704;2023-01-29T15:32:18;13.18;;;8.50;;
51718;SDS011;37795;53.236;5.704;2023-01-29T15:35:26;21.55;;;8.77;;
51718;SDS011;37795;53.236;5.704;2023-01-29T15:40:39;24.90;;;9.93;;
51718;SDS011;37795;53.236;5.704;2023-01-29T15:43:21;19.13;;;9.80;;
51718;SDS011;37795;53.236;5.704;2023-01-29T15:45:58;39.13;;;11.60;;
51718;SDS011;37795;53.236;5.704;2023-01-29T15:48:30;16.17;;;9.55;;
51718;SDS011;37795;53.236;5.704;2023-01-29T15:51:01;22.83;;;9.65;;
51718;SDS011;37795;53.236;5.704;2023-01-29T15:53:41;20.02;;;9.75;;
51718;SDS011;37795;53.236;5.704;2023-01-29T15:56:13;24.13;;;11.90;;
51718;SDS011;37795;53.236;5.704;2023-01-29T15:58:49;13.45;;;8.82;;
51718;SDS011;37795;53.236;5.704;2023-01-29T16:01:16;16.52;;;9.10;;
51718;SDS011;37795;53.236;5.704;2023-01-29T16:03:42;19.98;;;10.07;;
51718;SDS011;37795;53.236;5.704;2023-01-29T16:06:09;22.27;;;10.02;;
51718;SDS011;37795;53.236;5.704;2023-01-29T16:08:35;23.05;;;10.70;;
51718;SDS011;37795;53.236;5.704;2023-01-29T16:11:04;24.08;;;10.63;;
51718;SDS011;37795;53.236;5.704;2023-01-29T16:13:32;18.63;;;8.63;;
51718;SDS011;37795;53.236;5.704;2023-01-29T16:18:38;15.82;;;8.05;;
51718;SDS011;37795;53.236;5.704;2023-01-29T16:21:14;24.15;;;10.65;;
51718;SDS011;37795;53.236;5.704;2023-01-29T16:23:53;17.35;;;8.90;;
51718;SDS011;37795;53.236;5.704;2023-01-29T16:26:24;19.63;;;9.63;;
51718;SDS011;37795;53.236;5.704;2023-01-29T16:28:53;20.48;;;8.85;;
51718;SDS011;37795;53.236;5.704;2023-01-29T16:31:21;24.80;;;10.00;;
51718;SDS011;37795;53.236;5.704;2023-01-29T16:33:51;23.90;;;9.20;;
51718;SDS011;37795;53.236;5.704;2023-01-29T16:36:21;18.60;;;8.55;;
51718;SDS011;37795;53.236;5.704;2023-01-29T16:38:52;25.10;;;10.18;;
51718;SDS011;37795;53.236;5.704;2023-01-29T16:43:52;16.38;;;8.77;;
51718;SDS011;37795;53.236;5.704;2023-01-29T16:46:24;22.08;;;10.23;;
51718;SDS011;37795;53.236;5.704;2023-01-29T16:48:55;18.10;;;10.27;;
51718;SDS011;37795;53.236;5.704;2023-01-29T16:56:31;22.92;;;11.93;;
51718;SDS011;37795;53.236;5.704;2023-01-29T16:58:59;21.80;;;10.65;;
51718;SDS011;37795;53.236;5.704;2023-01-29T17:01:28;15.45;;;8.43;;
51718;SDS011;37795;53.236;5.704;2023-01-29T17:03:59;19.45;;;10.20;;
51718;SDS011;37795;53.236;5.704;2023-01-29T17:06:31;18.15;;;9.88;;
51718;SDS011;37795;53.236;5.704;2023-01-29T17:08:58;22.08;;;10.75;;
51718;SDS011;37795;53.236;5.704;2023-01-29T17:11:35;25.45;;;12.48;;
51718;SDS011;37795;53.236;5.704;2023-01-29T17:14:04;24.38;;;13.23;;
51718;SDS011;37795;53.236;5.704;2023-01-29T17:16:31;18.80;;;10.27;;
51718;SDS011;37795;53.236;5.704;2023-01-29T17:18:59;15.48;;;9.23;;
51718;SDS011;37795;53.236;5.704;2023-01-29T17:21:25;16.37;;;10.07;;
51718;SDS011;37795;53.236;5.704;2023-01-29T17:23:52;11.32;;;8.40;;
51718;SDS011;37795;53.236;5.704;2023-01-29T17:26:18;18.33;;;9.47;;